Terminal Aerodrome Forecast
Issued by NWS Boston, MA

Home | Current Version | Previous Version | Text Only | Print | Product List | Glossary On
Versions: 1 2 3 4 5 6 7 8 9 10 11 12 13 14 15 16 17 18 19 20 21 22 23 24 25 26 27 28 29 30 31 32 33 34 35 36 37 38 39 40 41 42 43 44
000
FTUS41 KBOX 252108 AAC
TAFBDL
TAF AMD
KBDL 252108Z 2521/2624 12004KT P6SM SCT050 SCT200
     FM260200 VRB03KT P6SM FEW200
     FM260800 VRB03KT 3SM BR SCT008
     FM261000 00000KT 3SM BR SCT003
     FM261300 00000KT P6SM BKN100
     FM261400 00000KT P6SM BKN200=

USA.gov is the U.S. government's official web portal to all federal, state and local government web resources and services.